< Typhoon 197124 1971 Season Typhoon 197126 >
Typhoon 197125 (VIRGINIA)
General InformationTrack Information on Google Maps || NewsDisaster Info.ResourceGoogle EarthGE AnimationAtom FeedGeoJSON
Detalied Best Track (Time Zone = UTC)
Year Month Day Hour Lat. Long. Pressure (hPa) Wind (kt) Class Image Chart
1971 9 1 00 18.0 138.0 1010 0 2 -- Chart
1971 9 1 06 18.2 138.3 1008 0 2 -- Chart
1971 9 1 12 18.3 138.4 1008 0 2 -- Chart
1971 9 1 18 18.3 138.6 1004 0 2 -- Chart
1971 9 2 00 18.5 138.7 1002 0 9 -- Chart
1971 9 2 06 19.3 138.5 1000 0 9 -- Chart
1971 9 2 12 19.7 138.4 1000 0 9 -- Chart
1971 9 2 18 20.1 138.4 1000 0 9 -- Chart
1971 9 3 00 20.3 138.3 1000 0 9 -- Chart
1971 9 3 06 20.6 138.3 996 0 9 -- Chart
1971 9 3 12 21.0 138.0 994 0 9 -- Chart
1971 9 3 18 21.3 137.5 992 0 9 -- Chart
1971 9 4 00 21.8 137.4 992 0 9 -- Chart
1971 9 4 06 22.3 137.2 985 0 9 -- Chart
1971 9 4 12 22.7 137.0 975 0 9 -- Chart
1971 9 4 18 23.5 136.6 970 0 9 -- Chart
1971 9 5 00 24.0 136.5 960 0 9 -- Chart
1971 9 5 06 25.2 136.5 955 0 9 -- Chart
1971 9 5 12 26.0 136.5 960 0 9 -- Chart
1971 9 5 18 27.0 136.3 960 0 9 -- Chart
1971 9 6 00 27.7 136.5 965 0 9 -- Chart
1971 9 6 06 28.3 136.6 965 0 9 -- Chart
1971 9 6 12 28.9 137.0 965 0 9 -- Chart
1971 9 6 18 30.0 137.3 975 0 9 -- Chart
1971 9 7 00 31.2 137.6 980 0 9 -- Chart
1971 9 7 06 32.5 138.5 980 0 9 -- Chart
1971 9 7 12 33.7 139.3 980 0 9 -- Chart
1971 9 7 18 35.6 141.3 975 0 9 -- Chart
1971 9 8 00 37.5 143.6 975 0 9 -- Chart
1971 9 8 06 39.5 146.5 975 0 9 -- Chart
1971 9 8 12 41.3 150.0 980 0 9 -- Chart
1971 9 8 18 43.0 153.5 980 0 9 -- Chart
1971 9 9 00 44.8 158.0 992 0 6 -- Chart
1971 9 9 06 46.7 160.7 996 0 6 -- Chart
1971 9 9 12 48.0 163.0 1002 0 6 -- Chart
1971 9 9 18 48.0 168.0 1002 0 6 -- Chart
1971 9 10 00 48.0 173.5 1004 0 6 -- Chart
1971 9 10 06 48.0 179.5 1004 0 6 -- Chart
Japan Meteorological Agency Best Track Data | Correction Date : 1989-06-01
< Typhoon 197124 1971 Season Typhoon 197126 >

Help